sensor_id;sensor_type;location;lat;lon;timestamp;pressure;altitude;pressure_sealevel;temperature;humidity
54389;BME280;40975;50.390;8.640;2023-03-08T00:01:20;97576.59;;;0.81;100.00
54389;BME280;40975;50.390;8.640;2023-03-08T00:03:50;97582.47;;;0.73;100.00
54389;BME280;40975;50.390;8.640;2023-03-08T00:06:15;97581.25;;;0.77;100.00
54389;BME280;40975;50.390;8.640;2023-03-08T00:08:41;97576.72;;;0.79;100.00
54389;BME280;40975;50.390;8.640;2023-03-08T00:11:08;97583.13;;;0.75;100.00
54389;BME280;40975;50.390;8.640;2023-03-08T00:13:34;97582.19;;;0.76;100.00
54389;BME280;40975;50.390;8.640;2023-03-08T00:16:05;97596.31;;;0.73;100.00
54389;BME280;40975;50.390;8.640;2023-03-08T00:18:31;97601.41;;;0.75;100.00
54389;BME280;40975;50.390;8.640;2023-03-08T00:21:03;97596.19;;;0.75;100.00
54389;BME280;40975;50.390;8.640;2023-03-08T00:23:28;97597.41;;;0.71;100.00
54389;BME280;40975;50.390;8.640;2023-03-08T00:25:54;97597.75;;;0.77;100.00
54389;BME280;40975;50.390;8.640;2023-03-08T00:28:19;97597.75;;;0.77;100.00
54389;BME280;40975;50.390;8.640;2023-03-08T00:30:45;97584.13;;;0.74;100.00
54389;BME280;40975;50.390;8.640;2023-03-08T00:33:10;97587.78;;;0.71;100.00
54389;BME280;40975;50.390;8.640;2023-03-08T00:35:35;97593.13;;;0.70;100.00
54389;BME280;40975;50.390;8.640;2023-03-08T00:38:01;97599.88;;;0.72;100.00
54389;BME280;40975;50.390;8.640;2023-03-08T00:40:26;97586.13;;;0.70;100.00
54389;BME280;40975;50.390;8.640;2023-03-08T00:42:51;97597.28;;;0.72;100.00
54389;BME280;40975;50.390;8.640;2023-03-08T00:45:17;97586.81;;;0.72;100.00
54389;BME280;40975;50.390;8.640;2023-03-08T00:47:42;97587.19;;;0.68;100.00
54389;BME280;40975;50.390;8.640;2023-03-08T00:50:08;97587.41;;;0.76;100.00
54389;BME280;40975;50.390;8.640;2023-03-08T00:52:34;97584.84;;;0.65;100.00
54389;BME280;40975;50.390;8.640;2023-03-08T00:54:59;97587.09;;;0.69;100.00
54389;BME280;40975;50.390;8.640;2023-03-08T00:57:25;97586.38;;;0.67;100.00
54389;BME280;40975;50.390;8.640;2023-03-08T00:59:50;97579.72;;;0.63;100.00
54389;BME280;40975;50.390;8.640;2023-03-08T01:02:16;97576.16;;;0.64;100.00
54389;BME280;40975;50.390;8.640;2023-03-08T01:04:41;97578.91;;;0.63;100.00
54389;BME280;40975;50.390;8.640;2023-03-08T01:07:06;97581.63;;;0.61;100.00
54389;BME280;40975;50.390;8.640;2023-03-08T01:09:32;97571.78;;;0.65;100.00
54389;BME280;40975;50.390;8.640;2023-03-08T01:11:57;97577.84;;;0.65;100.00
54389;BME280;40975;50.390;8.640;2023-03-08T01:14:23;97582.09;;;0.66;100.00
54389;BME280;40975;50.390;8.640;2023-03-08T01:16:48;97583.28;;;0.62;100.00
54389;BME280;40975;50.390;8.640;2023-03-08T01:19:14;97579.63;;;0.65;100.00
54389;BME280;40975;50.390;8.640;2023-03-08T01:21:40;97581.53;;;0.63;100.00
54389;BME280;40975;50.390;8.640;2023-03-08T01:24:05;97587.91;;;0.70;100.00
54389;BME280;40975;50.390;8.640;2023-03-08T01:26:31;97578.78;;;0.64;100.00
54389;BME280;40975;50.390;8.640;2023-03-08T01:28:56;97577.84;;;0.65;100.00
54389;BME280;40975;50.390;8.640;2023-03-08T01:31:29;97569.53;;;0.60;100.00
54389;BME280;40975;50.390;8.640;2023-03-08T01:33:56;97580.69;;;0.62;100.00
54389;BME280;40975;50.390;8.640;2023-03-08T01:36:23;97568.69;;;0.59;100.00
54389;BME280;40975;50.390;8.640;2023-03-08T01:38:49;97567.16;;;0.57;100.00
54389;BME280;40975;50.390;8.640;2023-03-08T01:41:18;97558.63;;;0.55;100.00
54389;BME280;40975;50.390;8.640;2023-03-08T01:43:44;97557.91;;;0.53;100.00
54389;BME280;40975;50.390;8.640;2023-03-08T01:46:30;97557.69;;;0.56;100.00
54389;BME280;40975;50.390;8.640;2023-03-08T01:49:21;97556.72;;;0.57;100.00
54389;BME280;40975;50.390;8.640;2023-03-08T01:51:56;97552.47;;;0.56;100.00
54389;BME280;40975;50.390;8.640;2023-03-08T01:54:27;97548.91;;;0.57;100.00
54389;BME280;40975;50.390;8.640;2023-03-08T01:56:58;97547.81;;;0.59;100.00
54389;BME280;40975;50.390;8.640;2023-03-08T01:59:25;97538.09;;;0.61;100.00
54389;BME280;40975;50.390;8.640;2023-03-08T02:01:52;97531.91;;;0.63;100.00
54389;BME280;40975;50.390;8.640;2023-03-08T02:04:18;97537.00;;;0.64;100.00
54389;BME280;40975;50.390;8.640;2023-03-08T02:06:45;97529.31;;;0.63;100.00
54389;BME280;40975;50.390;8.640;2023-03-08T02:09:10;97521.00;;;0.57;100.00
54389;BME280;40975;50.390;8.640;2023-03-08T02:11:38;97519.22;;;0.58;100.00
54389;BME280;40975;50.390;8.640;2023-03-08T02:14:05;97524.31;;;0.59;100.00
54389;BME280;40975;50.390;8.640;2023-03-08T02:16:31;97523.75;;;0.56;100.00
54389;BME280;40975;50.390;8.640;2023-03-08T02:19:00;97519.34;;;0.56;100.00
54389;BME280;40975;50.390;8.640;2023-03-08T02:21:27;97506.53;;;0.53;100.00
54389;BME280;40975;50.390;8.640;2023-03-08T02:23:54;97502.13;;;0.54;100.00
54389;BME280;40975;50.390;8.640;2023-03-08T02:26:20;97502.00;;;0.55;100.00
54389;BME280;40975;50.390;8.640;2023-03-08T02:28:46;97496.91;;;0.54;100.00
54389;BME280;40975;50.390;8.640;2023-03-08T02:31:12;97502.84;;;0.56;100.00
54389;BME280;40975;50.390;8.640;2023-03-08T02:33:38;97495.25;;;0.53;100.00
54389;BME280;40975;50.390;8.640;2023-03-08T02:36:05;97496.56;;;0.47;100.00
54389;BME280;40975;50.390;8.640;2023-03-08T02:38:32;97489.09;;;0.42;100.00
54389;BME280;40975;50.390;8.640;2023-03-08T02:40:58;97488.88;;;0.45;100.00
54389;BME280;40975;50.390;8.640;2023-03-08T02:43:23;97487.09;;;0.46;100.00
54389;BME280;40975;50.390;8.640;2023-03-08T02:45:49;97474.97;;;0.45;100.00
54389;BME280;40975;50.390;8.640;2023-03-08T02:48:14;97466.19;;;0.46;100.00
54389;BME280;40975;50.390;8.640;2023-03-08T02:50:40;97471.41;;;0.46;100.00
54389;BME280;40975;50.390;8.640;2023-03-08T02:53:06;97473.22;;;0.45;100.00
54389;BME280;40975;50.390;8.640;2023-03-08T02:55:32;97478.22;;;0.37;100.00
54389;BME280;40975;50.390;8.640;2023-03-08T02:58:06;97473.81;;;0.38;100.00
54389;BME280;40975;50.390;8.640;2023-03-08T03:00:33;97471.00;;;0.29;100.00
54389;BME280;40975;50.390;8.640;2023-03-08T03:02:58;97471.59;;;0.33;100.00
54389;BME280;40975;50.390;8.640;2023-03-08T03:05:26;97466.00;;;0.26;100.00
54389;BME280;40975;50.390;8.640;2023-03-08T03:07:51;97464.97;;;0.29;100.00
54389;BME280;40975;50.390;8.640;2023-03-08T03:10:19;97463.16;;;0.29;100.00
54389;BME280;40975;50.390;8.640;2023-03-08T03:12:44;97461.28;;;0.32;100.00
54389;BME280;40975;50.390;8.640;2023-03-08T03:15:13;97456.22;;;0.19;100.00
54389;BME280;40975;50.390;8.640;2023-03-08T03:17:40;97455.84;;;0.23;100.00
54389;BME280;40975;50.390;8.640;2023-03-08T03:20:07;97449.69;;;0.24;100.00
54389;BME280;40975;50.390;8.640;2023-03-08T03:22:34;97451.91;;;0.29;100.00
54389;BME280;40975;50.390;8.640;2023-03-08T03:24:59;97456.53;;;0.25;100.00
54389;BME280;40975;50.390;8.640;2023-03-08T03:27:25;97455.34;;;0.29;100.00
54389;BME280;40975;50.390;8.640;2023-03-08T03:29:53;97454.16;;;0.34;100.00
54389;BME280;40975;50.390;8.640;2023-03-08T03:32:18;97447.50;;;0.29;100.00
54389;BME280;40975;50.390;8.640;2023-03-08T03:34:44;97447.16;;;0.23;100.00
54389;BME280;40975;50.390;8.640;2023-03-08T03:37:09;97438.63;;;0.21;100.00
54389;BME280;40975;50.390;8.640;2023-03-08T03:39:38;97446.59;;;0.19;100.00
54389;BME280;40975;50.390;8.640;2023-03-08T03:42:06;97449.19;;;0.19;100.00
54389;BME280;40975;50.390;8.640;2023-03-08T03:44:32;97438.53;;;0.22;100.00
54389;BME280;40975;50.390;8.640;2023-03-08T03:46:58;97438.97;;;0.27;100.00
54389;BME280;40975;50.390;8.640;2023-03-08T03:49:26;97443.16;;;0.19;100.00
54389;BME280;40975;50.390;8.640;2023-03-08T03:51:51;97439.34;;;0.23;100.00
54389;BME280;40975;50.390;8.640;2023-03-08T03:54:22;97436.50;;;0.26;100.00
54389;BME280;40975;50.390;8.640;2023-03-08T03:56:47;97438.25;;;0.25;100.00
54389;BME280;40975;50.390;8.640;2023-03-08T03:59:13;97437.00;;;0.20;100.00
54389;BME280;40975;50.390;8.640;2023-03-08T04:01:38;97428.47;;;0.18;100.00
54389;BME280;40975;50.390;8.640;2023-03-08T04:04:17;97420.63;;;0.18;100.00
54389;BME280;40975;50.390;8.640;2023-03-08T04:06:44;97422.88;;;0.22;100.00
54389;BME280;40975;50.390;8.640;2023-03-08T04:09:15;97430.81;;;0.21;100.00
54389;BME280;40975;50.390;8.640;2023-03-08T04:11:43;97420.13;;;0.24;100.00
54389;BME280;40975;50.390;8.640;2023-03-08T04:14:13;97427.13;;;0.23;100.00
54389;BME280;40975;50.390;8.640;2023-03-08T04:16:39;97418.97;;;0.17;100.00
54389;BME280;40975;50.390;8.640;2023-03-08T04:19:12;97413.72;;;0.28;100.00
54389;BME280;40975;50.390;8.640;2023-03-08T04:21:44;97417.88;;;0.19;100.00
54389;BME280;40975;50.390;8.640;2023-03-08T04:24:09;97415.28;;;0.19;100.00
54389;BME280;40975;50.390;8.640;2023-03-08T04:26:35;97413.25;;;0.23;100.00
54389;BME280;40975;50.390;8.640;2023-03-08T04:29:02;97416.13;;;0.20;100.00
54389;BME280;40975;50.390;8.640;2023-03-08T04:31:31;97405.78;;;0.18;100.00
54389;BME280;40975;50.390;8.640;2023-03-08T04:34:01;97408.41;;;0.18;100.00
54389;BME280;40975;50.390;8.640;2023-03-08T04:36:27;97410.66;;;0.11;100.00
54389;BME280;40975;50.390;8.640;2023-03-08T04:38:56;97412.47;;;-0.01;100.00
54389;BME280;40975;50.390;8.640;2023-03-08T04:41:22;97420.53;;;0.08;100.00
54389;BME280;40975;50.390;8.640;2023-03-08T04:44:03;97414.59;;;0.06;100.00
54389;BME280;40975;50.390;8.640;2023-03-08T04:46:34;97398.25;;;0.04;100.00
54389;BME280;40975;50.390;8.640;2023-03-08T04:49:00;97402.63;;;0.03;100.00
54389;BME280;40975;50.390;8.640;2023-03-08T04:51:30;97404.66;;;-0.01;100.00
54389;BME280;40975;50.390;8.640;2023-03-08T04:54:00;97397.06;;;-0.04;100.00
54389;BME280;40975;50.390;8.640;2023-03-08T04:56:25;97390.81;;;-0.01;100.00
54389;BME280;40975;50.390;8.640;2023-03-08T04:58:51;97393.63;;;-0.04;100.00
54389;BME280;40975;50.390;8.640;2023-03-08T05:01:21;97386.19;;;-0.09;100.00
54389;BME280;40975;50.390;8.640;2023-03-08T05:03:47;97387.88;;;-0.19;100.00
54389;BME280;40975;50.390;8.640;2023-03-08T05:06:18;97378.97;;;-0.17;100.00
54389;BME280;40975;50.390;8.640;2023-03-08T05:08:45;97375.41;;;-0.16;100.00
54389;BME280;40975;50.390;8.640;2023-03-08T05:11:17;97364.16;;;-0.16;100.00
54389;BME280;40975;50.390;8.640;2023-03-08T05:13:43;97366.06;;;-0.18;100.00
54389;BME280;40975;50.390;8.640;2023-03-08T05:16:08;97355.28;;;-0.25;100.00
54389;BME280;40975;50.390;8.640;2023-03-08T05:18:34;97361.44;;;-0.26;100.00
54389;BME280;40975;50.390;8.640;2023-03-08T05:21:02;97356.34;;;-0.27;100.00
54389;BME280;40975;50.390;8.640;2023-03-08T05:23:29;97347.22;;;-0.22;100.00
54389;BME280;40975;50.390;8.640;2023-03-08T05:25:59;97339.25;;;-0.20;100.00
54389;BME280;40975;50.390;8.640;2023-03-08T05:28:27;97349.00;;;-0.22;100.00
54389;BME280;40975;50.390;8.640;2023-03-08T05:31:12;97337.59;;;-0.21;100.00
54389;BME280;40975;50.390;8.640;2023-03-08T05:33:39;97335.22;;;-0.13;100.00
54389;BME280;40975;50.390;8.640;2023-03-08T05:36:06;97324.19;;;-0.17;100.00
54389;BME280;40975;50.390;8.640;2023-03-08T05:38:32;97323.13;;;-0.14;100.00
54389;BME280;40975;50.390;8.640;2023-03-08T05:41:04;97319.69;;;-0.14;100.00
54389;BME280;40975;50.390;8.640;2023-03-08T05:43:30;97324.91;;;-0.14;100.00
54389;BME280;40975;50.390;8.640;2023-03-08T05:45:57;97312.81;;;-0.16;100.00
54389;BME280;40975;50.390;8.640;2023-03-08T05:48:24;97312.97;;;-0.17;100.00
54389;BME280;40975;50.390;8.640;2023-03-08T05:50:51;97305.19;;;-0.07;100.00
54389;BME280;40975;50.390;8.640;2023-03-08T05:53:17;97302.59;;;-0.07;100.00
54389;BME280;40975;50.390;8.640;2023-03-08T05:55:43;97306.78;;;-0.16;100.00
54389;BME280;40975;50.390;8.640;2023-03-08T05:58:09;97297.50;;;-0.09;100.00
54389;BME280;40975;50.390;8.640;2023-03-08T06:00:35;97303.91;;;-0.13;100.00
54389;BME280;40975;50.390;8.640;2023-03-08T06:03:00;97297.88;;;-0.13;100.00
54389;BME280;40975;50.390;8.640;2023-03-08T06:05:30;97300.50;;;-0.13;100.00
54389;BME280;40975;50.390;8.640;2023-03-08T06:07:57;97310.59;;;-0.20;100.00
54389;BME280;40975;50.390;8.640;2023-03-08T06:10:23;97304.41;;;-0.19;100.00
54389;BME280;40975;50.390;8.640;2023-03-08T06:12:50;97292.19;;;-0.19;100.00
54389;BME280;40975;50.390;8.640;2023-03-08T06:15:17;97290.63;;;-0.10;100.00
54389;BME280;40975;50.390;8.640;2023-03-08T06:17:43;97291.72;;;-0.12;100.00
54389;BME280;40975;50.390;8.640;2023-03-08T06:20:11;97277.03;;;-0.13;100.00
54389;BME280;40975;50.390;8.640;2023-03-08T06:22:40;97292.44;;;-0.10;100.00
54389;BME280;40975;50.390;8.640;2023-03-08T06:25:06;97295.84;;;-0.10;100.00
54389;BME280;40975;50.390;8.640;2023-03-08T06:27:34;97286.56;;;-0.03;100.00
54389;BME280;40975;50.390;8.640;2023-03-08T06:30:04;97279.69;;;-0.04;100.00
54389;BME280;40975;50.390;8.640;2023-03-08T06:32:31;97275.31;;;-0.03;100.00
54389;BME280;40975;50.390;8.640;2023-03-08T06:34:57;97279.59;;;-0.02;100.00
54389;BME280;40975;50.390;8.640;2023-03-08T06:37:23;97281.34;;;-0.03;100.00
54389;BME280;40975;50.390;8.640;2023-03-08T06:39:49;97283.16;;;-0.03;100.00
54389;BME280;40975;50.390;8.640;2023-03-08T06:42:14;97279.59;;;-0.02;100.00
54389;BME280;40975;50.390;8.640;2023-03-08T06:44:39;97272.47;;;0.00;100.00
54389;BME280;40975;50.390;8.640;2023-03-08T06:47:05;97265.00;;;-0.05;100.00
54389;BME280;40975;50.390;8.640;2023-03-08T06:49:30;97274.00;;;0.03;100.00
54389;BME280;40975;50.390;8.640;2023-03-08T06:51:56;97266.88;;;0.05;100.00
54389;BME280;40975;50.390;8.640;2023-03-08T06:54:22;97266.88;;;0.05;100.00
54389;BME280;40975;50.390;8.640;2023-03-08T06:56:48;97255.59;;;0.04;100.00
54389;BME280;40975;50.390;8.640;2023-03-08T06:59:13;97253.69;;;0.06;100.00
54389;BME280;40975;50.390;8.640;2023-03-08T07:01:39;97243.13;;;0.08;100.00
54389;BME280;40975;50.390;8.640;2023-03-08T07:04:05;97237.22;;;0.06;100.00
54389;BME280;40975;50.390;8.640;2023-03-08T07:06:30;97234.50;;;0.07;100.00
54389;BME280;40975;50.390;8.640;2023-03-08T07:08:56;97240.78;;;0.05;100.00
54389;BME280;40975;50.390;8.640;2023-03-08T07:11:22;97230.94;;;0.08;100.00
54389;BME280;40975;50.390;8.640;2023-03-08T07:13:47;97235.88;;;0.11;100.00
54389;BME280;40975;50.390;8.640;2023-03-08T07:16:12;97220.38;;;0.10;100.00
54389;BME280;40975;50.390;8.640;2023-03-08T07:18:38;97227.66;;;0.16;100.00
54389;BME280;40975;50.390;8.640;2023-03-08T07:21:04;97217.94;;;0.18;100.00
54389;BME280;40975;50.390;8.640;2023-03-08T07:23:30;97210.63;;;0.12;100.00
54389;BME280;40975;50.390;8.640;2023-03-08T07:25:55;97213.56;;;0.19;100.00
54389;BME280;40975;50.390;8.640;2023-03-08T07:28:21;97211.25;;;0.25;100.00
54389;BME280;40975;50.390;8.640;2023-03-08T07:30:48;97205.28;;;0.35;100.00
54389;BME280;40975;50.390;8.640;2023-03-08T07:33:15;97200.91;;;0.45;100.00
54389;BME280;40975;50.390;8.640;2023-03-08T07:35:41;97190.22;;;0.48;100.00
54389;BME280;40975;50.390;8.640;2023-03-08T07:38:07;97176.66;;;0.54;100.00
54389;BME280;40975;50.390;8.640;2023-03-08T07:40:32;97178.72;;;0.60;100.00
54389;BME280;40975;50.390;8.640;2023-03-08T07:42:57;97186.19;;;0.65;100.00
54389;BME280;40975;50.390;8.640;2023-03-08T07:45:29;97176.28;;;0.59;100.00
54389;BME280;40975;50.390;8.640;2023-03-08T07:47:55;97165.94;;;0.57;100.00
54389;BME280;40975;50.390;8.640;2023-03-08T07:50:20;97172.16;;;0.66;100.00
54389;BME280;40975;50.390;8.640;2023-03-08T07:52:46;97169.56;;;0.66;100.00
54389;BME280;40975;50.390;8.640;2023-03-08T07:55:12;97165.59;;;0.72;100.00
54389;BME280;40975;50.390;8.640;2023-03-08T07:57:37;97163.69;;;0.74;100.00
54389;BME280;40975;50.390;8.640;2023-03-08T08:00:03;97155.25;;;0.60;100.00
54389;BME280;40975;50.390;8.640;2023-03-08T08:02:37;97149.16;;;0.50;100.00
54389;BME280;40975;50.390;8.640;2023-03-08T08:05:04;97152.16;;;0.45;100.00
54389;BME280;40975;50.390;8.640;2023-03-08T08:07:29;97137.06;;;0.49;100.00
54389;BME280;40975;50.390;8.640;2023-03-08T08:09:55;97133.91;;;0.55;100.00
54389;BME280;40975;50.390;8.640;2023-03-08T08:12:20;97135.84;;;0.53;100.00
54389;BME280;40975;50.390;8.640;2023-03-08T08:14:49;97128.97;;;0.52;100.00
54389;BME280;40975;50.390;8.640;2023-03-08T08:17:14;97113.41;;;0.41;100.00
54389;BME280;40975;50.390;8.640;2023-03-08T08:19:39;97116.19;;;0.49;100.00
54389;BME280;40975;50.390;8.640;2023-03-08T08:22:05;97113.31;;;0.52;100.00
54389;BME280;40975;50.390;8.640;2023-03-08T08:24:31;97106.28;;;0.53;100.00
54389;BME280;40975;50.390;8.640;2023-03-08T08:26:57;97095.44;;;0.48;100.00
54389;BME280;40975;50.390;8.640;2023-03-08T08:29:22;97098.97;;;0.37;100.00
54389;BME280;40975;50.390;8.640;2023-03-08T08:31:47;97101.31;;;0.40;100.00
54389;BME280;40975;50.390;8.640;2023-03-08T08:34:13;97097.88;;;0.39;100.00
54389;BME280;40975;50.390;8.640;2023-03-08T08:36:38;97107.78;;;0.45;100.00
54389;BME280;40975;50.390;8.640;2023-03-08T08:39:04;97086.25;;;0.53;100.00
54389;BME280;40975;50.390;8.640;2023-03-08T08:41:29;97083.09;;;0.59;100.00
54389;BME280;40975;50.390;8.640;2023-03-08T08:43:57;97063.47;;;0.65;100.00
54389;BME280;40975;50.390;8.640;2023-03-08T08:46:24;97066.88;;;0.56;100.00
54389;BME280;40975;50.390;8.640;2023-03-08T08:48:52;97060.28;;;0.61;100.00
54389;BME280;40975;50.390;8.640;2023-03-08T08:51:17;97064.13;;;0.57;100.00
54389;BME280;40975;50.390;8.640;2023-03-08T08:53:43;97056.28;;;0.57;100.00
54389;BME280;40975;50.390;8.640;2023-03-08T08:56:20;97048.34;;;0.59;100.00
54389;BME280;40975;50.390;8.640;2023-03-08T08:58:46;97037.63;;;0.62;100.00
54389;BME280;40975;50.390;8.640;2023-03-08T09:01:16;97034.31;;;0.50;100.00
54389;BME280;40975;50.390;8.640;2023-03-08T09:03:43;97035.41;;;0.57;100.00
54389;BME280;40975;50.390;8.640;2023-03-08T09:06:09;97026.09;;;0.65;100.00
54389;BME280;40975;50.390;8.640;2023-03-08T09:08:34;97028.72;;;0.65;100.00
54389;BME280;40975;50.390;8.640;2023-03-08T09:11:04;97017.72;;;0.71;100.00
54389;BME280;40975;50.390;8.640;2023-03-08T09:13:30;97015.25;;;0.69;100.00
54389;BME280;40975;50.390;8.640;2023-03-08T09:15:56;97007.56;;;0.77;100.00
54389;BME280;40975;50.390;8.640;2023-03-08T09:18:21;97010.97;;;0.78;100.00
54389;BME280;40975;50.390;8.640;2023-03-08T09:20:46;97011.81;;;0.79;100.00
54389;BME280;40975;50.390;8.640;2023-03-08T09:23:11;96998.34;;;0.83;100.00
54389;BME280;40975;50.390;8.640;2023-03-08T09:25:37;97000.94;;;0.93;100.00
54389;BME280;40975;50.390;8.640;2023-03-08T09:28:02;96996.00;;;0.80;100.00
54389;BME280;40975;50.390;8.640;2023-03-08T09:30:27;96993.09;;;0.73;100.00
54389;BME280;40975;50.390;8.640;2023-03-08T09:32:53;96989.56;;;0.84;100.00
54389;BME280;40975;50.390;8.640;2023-03-08T09:35:18;96993.09;;;0.93;100.00
54389;BME280;40975;50.390;8.640;2023-03-08T09:37:44;96987.47;;;0.98;100.00
54389;BME280;40975;50.390;8.640;2023-03-08T09:40:20;96993.63;;;1.16;100.00
54389;BME280;40975;50.390;8.640;2023-03-08T09:42:45;96992.56;;;1.19;100.00
54389;BME280;40975;50.390;8.640;2023-03-08T09:45:18;96990.75;;;1.19;100.00
54389;BME280;40975;50.390;8.640;2023-03-08T09:53:06;96980.69;;;1.34;100.00
54389;BME280;40975;50.390;8.640;2023-03-08T09:55:36;96975.06;;;1.29;100.00
54389;BME280;40975;50.390;8.640;2023-03-08T09:58:27;96977.50;;;1.40;100.00
54389;BME280;40975;50.390;8.640;2023-03-08T10:01:33;96965.75;;;1.64;100.00
54389;BME280;40975;50.390;8.640;2023-03-08T10:07:00;96949.44;;;2.08;100.00
54389;BME280;40975;50.390;8.640;2023-03-08T10:09:38;96960.16;;;2.15;100.00
54389;BME280;40975;50.390;8.640;2023-03-08T10:13:21;96951.00;;;2.01;100.00
54389;BME280;40975;50.390;8.640;2023-03-08T10:15:16;96940.00;;;2.15;100.00
54389;BME280;40975;50.390;8.640;2023-03-08T10:17:50;96935.34;;;2.19;100.00
54389;BME280;40975;50.390;8.640;2023-03-08T10:20:25;96935.00;;;2.04;100.00
54389;BME280;40975;50.390;8.640;2023-03-08T10:23:21;96934.25;;;1.94;100.00
54389;BME280;40975;50.390;8.640;2023-03-08T10:25:48;96931.91;;;1.91;100.00
54389;BME280;40975;50.390;8.640;2023-03-08T10:28:17;96933.50;;;1.74;100.00
54389;BME280;40975;50.390;8.640;2023-03-08T10:30:54;96927.28;;;1.75;100.00
54389;BME280;40975;50.390;8.640;2023-03-08T10:33:24;96926.84;;;1.51;100.00
54389;BME280;40975;50.390;8.640;2023-03-08T10:38:25;96925.34;;;1.49;100.00
54389;BME280;40975;50.390;8.640;2023-03-08T10:40:59;96921.53;;;1.33;100.00
54389;BME280;40975;50.390;8.640;2023-03-08T10:43:30;96918.53;;;1.28;100.00
54389;BME280;40975;50.390;8.640;2023-03-08T10:46:18;96915.56;;;1.13;100.00
54389;BME280;40975;50.390;8.640;2023-03-08T10:48:44;96905.09;;;1.13;100.00
54389;BME280;40975;50.390;8.640;2023-03-08T10:53:55;96897.25;;;1.13;100.00
54389;BME280;40975;50.390;8.640;2023-03-08T10:56:43;96894.50;;;1.05;100.00
54389;BME280;40975;50.390;8.640;2023-03-08T10:59:21;96893.63;;;1.34;100.00
54389;BME280;40975;50.390;8.640;2023-03-08T11:01:53;96883.38;;;1.50;100.00
54389;BME280;40975;50.390;8.640;2023-03-08T11:04:21;96874.28;;;1.54;100.00
54389;BME280;40975;50.390;8.640;2023-03-08T11:06:47;96871.22;;;1.59;100.00
54389;BME280;40975;50.390;8.640;2023-03-08T11:09:26;96882.97;;;1.45;100.00
54389;BME280;40975;50.390;8.640;2023-03-08T11:11:57;96886.56;;;1.44;100.00
54389;BME280;40975;50.390;8.640;2023-03-08T11:14:23;96879.53;;;1.45;100.00
54389;BME280;40975;50.390;8.640;2023-03-08T11:17:09;96872.97;;;1.68;100.00
54389;BME280;40975;50.390;8.640;2023-03-08T11:19:57;96882.56;;;1.78;100.00
54389;BME280;40975;50.390;8.640;2023-03-08T11:22:52;96882.13;;;1.82;100.00
54389;BME280;40975;50.390;8.640;2023-03-08T11:28:05;96880.63;;;1.98;100.00
54389;BME280;40975;50.390;8.640;2023-03-08T11:30:53;96876.56;;;2.13;100.00
54389;BME280;40975;50.390;8.640;2023-03-08T11:36:23;96866.53;;;2.09;100.00
54389;BME280;40975;50.390;8.640;2023-03-08T11:38:57;96864.25;;;1.96;100.00
54389;BME280;40975;50.390;8.640;2023-03-08T11:41:35;96857.09;;;1.98;100.00
54389;BME280;40975;50.390;8.640;2023-03-08T11:50:09;96847.47;;;1.98;100.00
54389;BME280;40975;50.390;8.640;2023-03-08T11:57:54;96848.06;;;2.28;100.00
54389;BME280;40975;50.390;8.640;2023-03-08T12:00:31;96838.50;;;2.19;100.00
54389;BME280;40975;50.390;8.640;2023-03-08T12:03:02;96839.31;;;2.20;100.00
54389;BME280;40975;50.390;8.640;2023-03-08T12:05:37;96824.25;;;2.58;100.00
54389;BME280;40975;50.390;8.640;2023-03-08T12:08:15;96828.22;;;2.88;100.00
54389;BME280;40975;50.390;8.640;2023-03-08T12:10:47;96823.38;;;2.75;100.00
54389;BME280;40975;50.390;8.640;2023-03-08T12:13:30;96821.25;;;2.53;100.00
54389;BME280;40975;50.390;8.640;2023-03-08T12:18:45;96817.28;;;2.67;100.00
54389;BME280;40975;50.390;8.640;2023-03-08T12:21:23;96812.94;;;2.57;100.00
54389;BME280;40975;50.390;8.640;2023-03-08T12:24:25;96813.78;;;2.40;100.00
54389;BME280;40975;50.390;8.640;2023-03-08T12:27:02;96809.66;;;2.55;100.00
54389;BME280;40975;50.390;8.640;2023-03-08T12:30:11;96813.25;;;2.54;100.00
54389;BME280;40975;50.390;8.640;2023-03-08T12:32:23;96809.28;;;2.50;100.00
54389;BME280;40975;50.390;8.640;2023-03-08T12:35:01;96803.97;;;2.60;100.00
54389;BME280;40975;50.390;8.640;2023-03-08T12:37:28;96804.31;;;2.65;100.00
54389;BME280;40975;50.390;8.640;2023-03-08T12:40:06;96797.44;;;2.64;100.00
54389;BME280;40975;50.390;8.640;2023-03-08T12:42:37;96798.25;;;2.64;100.00
54389;BME280;40975;50.390;8.640;2023-03-08T12:48:46;96803.25;;;2.76;100.00
54389;BME280;40975;50.390;8.640;2023-03-08T12:50:44;96795.28;;;2.86;100.00
54389;BME280;40975;50.390;8.640;2023-03-08T12:56:02;96797.50;;;2.72;100.00
54389;BME280;40975;50.390;8.640;2023-03-08T12:58:29;96806.72;;;2.85;100.00
54389;BME280;40975;50.390;8.640;2023-03-08T13:00:58;96800.16;;;2.54;100.00
54389;BME280;40975;50.390;8.640;2023-03-08T13:03:38;96796.88;;;2.52;100.00
54389;BME280;40975;50.390;8.640;2023-03-08T13:08:55;96798.97;;;2.48;100.00
54389;BME280;40975;50.390;8.640;2023-03-08T13:11:23;96786.81;;;2.66;100.00
54389;BME280;40975;50.390;8.640;2023-03-08T13:13:57;96797.97;;;2.68;100.00
54389;BME280;40975;50.390;8.640;2023-03-08T13:16:35;96794.28;;;2.60;100.00
54389;BME280;40975;50.390;8.640;2023-03-08T13:24:37;96786.63;;;2.41;100.00
54389;BME280;40975;50.390;8.640;2023-03-08T13:27:19;96779.16;;;2.46;100.00
54389;BME280;40975;50.390;8.640;2023-03-08T13:29:46;96783.50;;;2.37;100.00
54389;BME280;40975;50.390;8.640;2023-03-08T13:32:19;96783.66;;;2.36;100.00
54389;BME280;40975;50.390;8.640;2023-03-08T13:34:57;96788.47;;;2.04;100.00
54389;BME280;40975;50.390;8.640;2023-03-08T13:37:25;96792.19;;;2.01;100.00
54389;BME280;40975;50.390;8.640;2023-03-08T13:39:53;96771.88;;;1.95;100.00
54389;BME280;40975;50.390;8.640;2023-03-08T13:42:18;96770.63;;;1.99;100.00
54389;BME280;40975;50.390;8.640;2023-03-08T13:44:52;96763.41;;;2.01;100.00
54389;BME280;40975;50.390;8.640;2023-03-08T13:47:23;96775.75;;;1.91;100.00
54389;BME280;40975;50.390;8.640;2023-03-08T13:49:52;96772.72;;;1.78;100.00
54389;BME280;40975;50.390;8.640;2023-03-08T13:52:27;96772.03;;;1.76;100.00
54389;BME280;40975;50.390;8.640;2023-03-08T13:54:57;96766.63;;;1.77;100.00